createdAt,value
2018-02-19T00:00:31.810Z,8.27
2018-02-19T00:02:59.325Z,7.90
2018-02-19T00:05:26.926Z,8.03
2018-02-19T00:07:55.194Z,7.13
2018-02-19T00:10:23.589Z,9.23
2018-02-19T00:12:51.215Z,8.37
2018-02-19T00:15:18.762Z,8.70
2018-02-19T00:17:47.045Z,8.50
2018-02-19T00:20:15.345Z,8.07
2018-02-19T00:22:42.849Z,8.40
2018-02-19T00:25:10.362Z,9.00
2018-02-19T00:27:38.638Z,8.50
2018-02-19T00:30:06.561Z,8.23
2018-02-19T00:32:34.109Z,8.47
2018-02-19T00:35:02.445Z,8.17
2018-02-19T00:37:29.970Z,7.60
2018-02-19T00:39:58.273Z,8.03
2018-02-19T00:42:26.605Z,8.60
2018-02-19T00:44:54.213Z,8.13
2018-02-19T00:47:22.546Z,8.00
2018-02-19T00:49:50.089Z,8.77
2018-02-19T00:52:18.616Z,8.40
2018-02-19T00:54:46.134Z,9.20
2018-02-19T00:57:13.615Z,7.90
2018-02-19T00:59:41.906Z,7.80
2018-02-19T01:02:10.280Z,8.60
2018-02-19T01:04:37.790Z,8.77
2018-02-19T01:07:05.285Z,7.90
2018-02-19T01:09:32.826Z,8.70
2018-02-19T01:12:00.341Z,9.33
2018-02-19T01:14:28.765Z,7.93
2018-02-19T01:16:57.041Z,8.10
2018-02-19T01:19:24.637Z,8.33
2018-02-19T01:21:52.913Z,8.97
2018-02-19T01:24:21.183Z,8.03
2018-02-19T01:26:48.702Z,8.90
2018-02-19T01:29:16.224Z,8.10
2018-02-19T01:31:43.727Z,8.33
2018-02-19T01:34:12.145Z,8.57
2018-02-19T01:36:39.693Z,7.97
2018-02-19T01:39:07.965Z,8.00
2018-02-19T01:41:36.215Z,8.00
2018-02-19T01:44:03.727Z,8.23
2018-02-19T01:46:31.285Z,8.00
2018-02-19T01:48:58.893Z,7.50
2018-02-19T01:51:26.477Z,8.23
2018-02-19T01:53:54.033Z,8.90
2018-02-19T01:56:21.574Z,8.57
2018-02-19T01:58:49.871Z,8.07
2018-02-19T02:01:18.143Z,8.30
2018-02-19T02:03:45.790Z,8.13
2018-02-19T02:06:13.303Z,7.87
2018-02-19T02:08:41.620Z,8.30
2018-02-19T02:11:09.167Z,7.60
2018-02-19T02:13:36.738Z,7.93
2018-02-19T02:16:05.002Z,7.27
2018-02-19T02:18:32.518Z,8.00
2018-02-19T02:21:00.006Z,7.60
2018-02-19T02:23:28.221Z,6.70
2018-02-19T02:25:55.753Z,8.10
2018-02-19T02:28:23.482Z,7.50
2018-02-19T02:30:50.977Z,6.50
2018-02-19T02:33:19.254Z,7.50
2018-02-19T02:35:47.501Z,8.03
2018-02-19T02:38:15.015Z,7.50
2018-02-19T02:40:43.263Z,7.93
2018-02-19T02:43:10.777Z,7.90
2018-02-19T02:45:39.050Z,7.60
2018-02-19T02:48:06.575Z,8.07
2018-02-19T02:50:34.070Z,8.27
2018-02-19T02:53:01.558Z,7.97
2018-02-19T02:55:29.088Z,7.23
2018-02-19T02:57:56.618Z,8.00
2018-02-19T03:00:24.912Z,7.33
2018-02-19T03:02:53.158Z,7.50
2018-02-19T03:05:20.791Z,7.83
2018-02-19T03:07:48.277Z,7.60
2018-02-19T03:10:16.290Z,8.63
2018-02-19T03:12:43.842Z,7.60
2018-02-19T03:15:11.406Z,8.00
2018-02-19T03:17:38.929Z,6.83
2018-02-19T03:20:07.224Z,8.60
2018-02-19T03:22:35.525Z,8.23
2018-02-19T03:25:03.215Z,8.50
2018-02-19T03:27:30.819Z,8.40
2018-02-19T03:29:58.389Z,8.40
2018-02-19T03:32:25.974Z,9.03
2018-02-19T03:34:53.498Z,8.83
2018-02-19T03:37:21.055Z,8.70
2018-02-19T03:39:49.319Z,9.20
2018-02-19T03:42:16.863Z,8.23
2018-02-19T03:44:46.004Z,8.47
2018-02-19T03:47:13.486Z,8.80
2018-02-19T03:49:41.020Z,8.05
2018-02-19T03:52:08.543Z,8.20
2018-02-19T03:54:36.040Z,7.73
2018-02-19T03:57:03.521Z,8.87
2018-02-19T03:59:31.038Z,8.23
2018-02-19T04:01:59.323Z,10.00
2018-02-19T04:04:26.901Z,8.60
2018-02-19T04:06:54.416Z,9.03
2018-02-19T04:09:21.930Z,9.40
2018-02-19T04:11:50.188Z,9.63
2018-02-19T04:14:17.698Z,9.37
2018-02-19T04:16:46.029Z,9.93
2018-02-19T04:19:13.591Z,8.80
2018-02-19T04:21:41.189Z,9.20
2018-02-19T04:24:08.792Z,8.77
2018-02-19T04:26:37.058Z,9.27
2018-02-19T04:29:04.569Z,9.60
2018-02-19T04:31:32.074Z,9.53
2018-02-19T04:33:59.611Z,9.07
2018-02-19T04:36:27.174Z,9.13
2018-02-19T04:38:55.877Z,9.60
2018-02-19T04:41:23.388Z,8.40
2018-02-19T04:43:51.153Z,9.70
2018-02-19T04:46:25.318Z,9.57
2018-02-19T04:48:52.887Z,10.30
2018-02-19T04:51:20.377Z,10.53
2018-02-19T04:53:48.682Z,9.70
2018-02-19T04:56:16.204Z,10.77
2018-02-19T04:58:43.701Z,10.23
2018-02-19T05:01:11.965Z,10.43
2018-02-19T05:03:39.482Z,10.03
2018-02-19T05:06:06.982Z,10.77
2018-02-19T05:08:34.482Z,11.20
2018-02-19T05:11:01.977Z,10.60
2018-02-19T05:13:29.487Z,12.53
2018-02-19T05:15:57.084Z,10.33
2018-02-19T05:18:24.701Z,11.07
2018-02-19T05:20:53.010Z,11.47
2018-02-19T05:23:22.081Z,11.67
2018-02-19T05:25:49.582Z,10.80
2018-02-19T05:28:17.090Z,10.60
2018-02-19T05:30:44.607Z,10.57
2018-02-19T05:33:12.933Z,9.95
2018-02-19T05:35:40.762Z,10.40
2018-02-19T05:38:08.278Z,12.40
2018-02-19T05:40:35.875Z,11.73
2018-02-19T05:43:03.429Z,12.70
2018-02-19T05:45:30.991Z,12.13
2018-02-19T05:47:58.505Z,11.50
2018-02-19T05:50:26.218Z,11.97
2018-02-19T05:52:53.768Z,12.83
2018-02-19T05:55:22.074Z,13.57
2018-02-19T05:57:50.462Z,12.60
2018-02-19T06:00:18.768Z,13.53
2018-02-19T06:02:46.274Z,13.63
2018-02-19T06:05:13.765Z,13.20
2018-02-19T06:07:41.337Z,13.73
2018-02-19T06:10:08.873Z,13.38
2018-02-19T06:12:36.512Z,13.62
2018-02-19T06:15:04.922Z,14.18
2018-02-19T06:17:32.428Z,14.23
2018-02-19T06:19:59.926Z,15.30
2018-02-19T06:22:27.490Z,14.80
2018-02-19T06:24:55.098Z,14.77
2018-02-19T06:27:22.668Z,14.25
2018-02-19T06:29:50.233Z,13.00
2018-02-19T06:32:17.803Z,14.57
2018-02-19T06:34:46.085Z,15.80
2018-02-19T06:37:14.359Z,14.02
2018-02-19T06:39:41.953Z,13.95
2018-02-19T06:42:10.465Z,14.50
2018-02-19T06:44:37.983Z,14.40
2018-02-19T06:47:05.594Z,23.00
2018-02-19T06:49:33.870Z,15.87
2018-02-19T06:52:01.379Z,14.93
2018-02-19T06:54:28.916Z,15.60
2018-02-19T06:56:57.214Z,15.97
2018-02-19T06:59:24.788Z,15.40
2018-02-19T07:01:52.293Z,15.80
2018-02-19T07:04:19.854Z,14.67
2018-02-19T07:06:47.725Z,15.67
2018-02-19T07:09:15.297Z,15.67
2018-02-19T07:11:42.795Z,15.77
2018-02-19T07:14:11.321Z,15.35
2018-02-19T07:16:39.622Z,15.90
2018-02-19T07:19:07.351Z,15.83
2018-02-19T07:21:34.852Z,14.93
2018-02-19T07:24:03.141Z,15.90
2018-02-19T07:26:30.719Z,17.00
2018-02-19T07:28:59.719Z,15.20
2018-02-19T07:31:27.218Z,15.90
2018-02-19T07:33:54.729Z,16.37
2018-02-19T07:36:22.335Z,14.90
2018-02-19T07:38:50.722Z,15.13
2018-02-19T07:41:19.499Z,14.93
2018-02-19T07:43:47.055Z,16.50
2018-02-19T07:46:14.646Z,15.82
2018-02-19T07:48:42.236Z,16.23
2018-02-19T07:51:09.799Z,16.70
2018-02-19T07:53:37.316Z,15.60
2018-02-19T07:56:04.897Z,16.77
2018-02-19T07:58:32.435Z,15.70
2018-02-19T08:01:00.722Z,15.80
2018-02-19T08:03:29.023Z,16.62
2018-02-19T08:05:56.590Z,16.60
2018-02-19T08:08:24.150Z,16.27
2018-02-19T08:10:52.470Z,16.55
2018-02-19T08:13:20.373Z,16.67
2018-02-19T08:15:47.898Z,14.60
2018-02-19T08:18:15.430Z,15.90
2018-02-19T08:20:42.964Z,15.00
2018-02-19T08:23:11.247Z,15.60
2018-02-19T08:25:38.760Z,16.10
2018-02-19T08:28:06.294Z,15.63
2018-02-19T08:30:33.799Z,15.07
2018-02-19T08:33:01.321Z,15.50
2018-02-19T08:35:30.321Z,13.73
2018-02-19T08:37:58.622Z,16.60
2018-02-19T08:40:26.170Z,14.77
2018-02-19T08:42:54.657Z,15.13
2018-02-19T08:45:22.974Z,14.67
2018-02-19T08:47:50.496Z,15.47
2018-02-19T08:50:17.995Z,16.00
2018-02-19T08:52:46.304Z,14.18
2018-02-19T08:55:13.995Z,15.05
2018-02-19T08:57:41.550Z,15.57
2018-02-19T09:00:09.101Z,16.30
2018-02-19T09:02:36.600Z,15.90
2018-02-19T09:05:04.116Z,16.37
2018-02-19T09:07:31.625Z,16.20
2018-02-19T09:09:59.910Z,13.70
2018-02-19T09:12:28.320Z,15.17
2018-02-19T09:14:56.716Z,14.63
2018-02-19T09:17:24.221Z,14.40
2018-02-19T09:19:51.802Z,15.40
2018-02-19T09:22:19.330Z,15.40
2018-02-19T09:24:46.950Z,15.03
2018-02-19T09:27:15.325Z,16.43
2018-02-19T09:29:42.850Z,16.20
2018-02-19T09:32:11.155Z,14.33
2018-02-19T09:34:38.693Z,15.00
2018-02-19T09:37:06.226Z,15.23
2018-02-19T09:39:33.766Z,15.83
2018-02-19T09:42:01.259Z,14.63
2018-02-19T09:44:28.800Z,14.97
2018-02-19T09:46:56.409Z,14.70
2018-02-19T09:49:24.011Z,15.10
2018-02-19T09:51:51.527Z,14.30
2018-02-19T09:54:19.080Z,16.37
2018-02-19T09:56:46.649Z,13.97
2018-02-19T09:59:15.256Z,14.73
2018-02-19T10:01:42.791Z,15.00
2018-02-19T10:04:10.486Z,16.30
2018-02-19T10:06:38.776Z,14.67
2018-02-19T10:09:07.068Z,15.67
2018-02-19T10:11:34.651Z,15.63
2018-02-19T10:14:02.176Z,16.50
2018-02-19T10:16:29.836Z,14.60
2018-02-19T10:18:57.363Z,14.73
2018-02-19T10:21:25.042Z,16.20
2018-02-19T10:23:52.579Z,14.03
2018-02-19T10:26:20.166Z,14.53
2018-02-19T10:28:48.525Z,14.47
2018-02-19T10:31:16.061Z,14.53
2018-02-19T10:33:43.577Z,14.80
2018-02-19T10:36:11.092Z,14.30
2018-02-19T10:38:38.629Z,14.10
2018-02-19T10:41:06.162Z,14.07
2018-02-19T10:43:33.733Z,14.50
2018-02-19T10:46:01.474Z,14.57
2018-02-19T10:48:29.076Z,13.97
2018-02-19T10:50:56.635Z,14.90
2018-02-19T10:53:24.219Z,15.67
2018-02-19T10:55:51.773Z,15.17
2018-02-19T10:58:19.268Z,14.73
2018-02-19T11:00:46.962Z,14.93
2018-02-19T11:03:14.524Z,15.70
2018-02-19T11:05:42.240Z,15.23
2018-02-19T11:08:10.927Z,14.53
2018-02-19T11:10:39.223Z,14.40
2018-02-19T11:13:07.499Z,15.87
2018-02-19T11:15:35.023Z,15.43
2018-02-19T11:18:02.576Z,13.67
2018-02-19T11:20:30.093Z,13.80
2018-02-19T11:22:57.596Z,14.67
2018-02-19T11:25:25.260Z,14.47
2018-02-19T11:27:53.583Z,15.53
2018-02-19T11:30:21.143Z,14.93
2018-02-19T11:32:48.667Z,15.13
2018-02-19T11:35:16.221Z,15.37
2018-02-19T11:37:43.771Z,14.67
2018-02-19T11:40:11.288Z,14.93
2018-02-19T11:42:38.922Z,14.73
2018-02-19T11:45:06.472Z,14.60
2018-02-19T11:47:33.992Z,15.70
2018-02-19T11:50:01.612Z,15.10
2018-02-19T11:52:29.146Z,14.63
2018-02-19T11:54:57.435Z,15.80
2018-02-19T11:57:25.015Z,14.50
2018-02-19T11:59:53.395Z,14.37
2018-02-19T12:02:24.554Z,15.40
2018-02-19T12:04:52.224Z,14.57
2018-02-19T12:07:19.836Z,13.87
2018-02-19T12:09:47.380Z,14.63
2018-02-19T12:12:15.803Z,14.60
2018-02-19T12:14:43.389Z,14.30
2018-02-19T12:17:10.907Z,14.57
2018-02-19T12:19:38.456Z,14.70
2018-02-19T12:22:06.081Z,13.40
2018-02-19T12:24:33.621Z,13.50
2018-02-19T12:27:01.335Z,13.70
2018-02-19T12:29:28.927Z,13.43
2018-02-19T12:31:56.581Z,14.13
2018-02-19T12:34:24.255Z,13.70
2018-02-19T12:36:52.520Z,13.00
2018-02-19T12:39:20.910Z,12.70
2018-02-19T12:41:48.465Z,13.83
2018-02-19T12:44:16.018Z,14.03
2018-02-19T12:46:43.560Z,13.60
2018-02-19T12:49:11.132Z,12.07
2018-02-19T12:51:38.738Z,13.60
2018-02-19T12:54:06.322Z,12.73
2018-02-19T12:56:33.836Z,12.50
2018-02-19T12:59:01.471Z,13.70
2018-02-19T13:01:28.999Z,12.53
2018-02-19T13:03:56.525Z,11.50
2018-02-19T13:06:24.800Z,12.90
2018-02-19T13:08:54.840Z,11.83
2018-02-19T13:11:23.109Z,12.20
2018-02-19T13:13:52.194Z,12.70
2018-02-19T13:16:19.781Z,12.90
2018-02-19T13:18:47.423Z,11.30
2018-02-19T13:21:15.066Z,11.80
2018-02-19T13:23:42.582Z,11.33
2018-02-19T13:26:10.185Z,12.07
2018-02-19T13:28:37.792Z,12.93
2018-02-19T13:31:05.301Z,12.40
2018-02-19T13:33:33.742Z,11.13
2018-02-19T13:36:02.149Z,10.83
2018-02-19T13:38:30.036Z,11.43
2018-02-19T13:40:57.741Z,11.20
2018-02-19T13:43:32.408Z,10.33
2018-02-19T13:45:59.916Z,10.40
2018-02-19T13:48:27.451Z,11.10
2018-02-19T13:50:54.984Z,12.23
2018-02-19T13:53:22.518Z,10.80
2018-02-19T13:55:50.196Z,11.10
2018-02-19T13:58:17.753Z,9.60
2018-02-19T14:00:46.381Z,10.03
2018-02-19T14:03:13.896Z,10.23
2018-02-19T14:05:41.587Z,10.00
2018-02-19T14:08:09.165Z,10.77
2018-02-19T14:10:37.461Z,10.77
2018-02-19T14:13:05.769Z,12.50
2018-02-19T14:15:33.282Z,12.70
2018-02-19T14:18:00.787Z,11.30
2018-02-19T14:20:29.054Z,11.37
2018-02-19T14:22:56.560Z,10.23
2018-02-19T14:25:24.105Z,12.03
2018-02-19T14:27:51.686Z,12.20
2018-02-19T14:30:19.973Z,10.50
2018-02-19T14:32:48.308Z,11.73
2018-02-19T14:35:15.832Z,11.40
2018-02-19T14:37:44.107Z,11.80
2018-02-19T14:40:11.727Z,11.03
2018-02-19T14:42:39.265Z,11.53
2018-02-19T14:45:07.586Z,10.20
2018-02-19T14:47:35.133Z,12.17
2018-02-19T14:50:03.521Z,11.93
2018-02-19T14:52:31.794Z,12.93
2018-02-19T14:55:00.032Z,11.43
2018-02-19T14:57:27.558Z,10.67
2018-02-19T14:59:55.136Z,11.30
2018-02-19T15:02:23.501Z,11.57
2018-02-19T15:04:51.864Z,11.20
2018-02-19T15:07:19.364Z,12.00
2018-02-19T15:09:46.880Z,10.40
2018-02-19T15:12:14.393Z,11.30
2018-02-19T15:14:42.065Z,11.50
2018-02-19T15:17:09.574Z,11.27
2018-02-19T15:19:37.870Z,10.87
2018-02-19T15:22:06.152Z,11.10
2018-02-19T15:24:34.460Z,10.83
2018-02-19T15:27:01.975Z,11.20
2018-02-19T15:29:29.513Z,11.13
2018-02-19T15:31:57.034Z,11.43
2018-02-19T15:34:25.432Z,11.07
2018-02-19T15:36:53.778Z,10.80
2018-02-19T15:39:21.320Z,11.67
2018-02-19T15:41:48.835Z,11.40
2018-02-19T15:44:16.378Z,11.33
2018-02-19T15:46:43.942Z,11.83
2018-02-19T15:49:11.518Z,10.87
2018-02-19T15:51:39.043Z,12.20
2018-02-19T15:54:06.711Z,11.73
2018-02-19T15:56:35.131Z,11.73
2018-02-19T15:59:03.222Z,12.67
2018-02-19T16:01:30.750Z,11.47
2018-02-19T16:03:58.375Z,11.57
2018-02-19T16:06:25.926Z,10.77
2018-02-19T16:08:54.220Z,12.90
2018-02-19T16:11:22.500Z,13.17
2018-02-19T16:13:50.833Z,14.03
2018-02-19T16:16:18.419Z,13.70
2018-02-19T16:18:46.035Z,12.43
2018-02-19T16:21:14.539Z,14.77
2018-02-19T16:23:42.120Z,13.00
2018-02-19T16:26:09.666Z,12.87
2018-02-19T16:28:37.999Z,12.77
2018-02-19T16:31:05.533Z,12.50
2018-02-19T16:33:33.939Z,13.40
2018-02-19T16:36:01.509Z,14.30
2018-02-19T16:38:29.702Z,13.10
2018-02-19T16:41:02.136Z,13.20
2018-02-19T16:43:29.981Z,13.90
2018-02-19T16:45:58.727Z,14.30
2018-02-19T16:48:26.571Z,11.90
2018-02-19T16:50:54.090Z,12.90
2018-02-19T16:53:22.396Z,13.80
2018-02-19T16:55:49.979Z,13.00
2018-02-19T16:58:17.534Z,13.00
2018-02-19T17:00:45.825Z,11.90
2018-02-19T17:03:14.206Z,14.00
2018-02-19T17:05:42.520Z,12.93
2018-02-19T17:08:10.057Z,14.73
2018-02-19T17:10:38.469Z,14.20
2018-02-19T17:13:06.048Z,12.70
2018-02-19T17:15:34.336Z,14.70
2018-02-19T17:18:01.836Z,15.67
2018-02-19T17:20:29.394Z,14.50
2018-02-19T17:22:56.990Z,15.00
2018-02-19T17:25:24.786Z,14.30
2018-02-19T17:27:52.408Z,13.40
2018-02-19T17:30:19.955Z,14.17
2018-02-19T17:32:48.365Z,14.80
2018-02-19T17:35:15.907Z,16.00
2018-02-19T17:37:44.204Z,15.80
2018-02-19T17:40:12.493Z,16.10
2018-02-19T17:42:40.011Z,17.80
2018-02-19T17:45:07.565Z,16.90
2018-02-19T17:47:35.063Z,16.03
2018-02-19T17:50:02.703Z,16.57
2018-02-19T17:52:30.931Z,15.87
2018-02-19T17:54:58.670Z,15.00
2018-02-19T17:57:26.187Z,16.23
2018-02-19T17:59:53.892Z,17.30
2018-02-19T18:02:22.237Z,16.93
2018-02-19T18:04:50.081Z,16.23
2018-02-19T18:07:17.587Z,17.80
2018-02-19T18:09:45.173Z,17.67
2018-02-19T18:12:12.710Z,16.20
2018-02-19T18:14:40.289Z,18.40
2018-02-19T18:17:07.851Z,16.90
2018-02-19T18:19:35.421Z,17.63
2018-02-19T18:22:03.009Z,18.47
2018-02-19T18:24:30.847Z,17.93
2018-02-19T18:26:58.466Z,15.90
2018-02-19T18:29:26.088Z,17.23
2018-02-19T18:31:53.661Z,17.30
2018-02-19T18:34:21.189Z,18.17
2018-02-19T18:36:49.587Z,17.70
2018-02-19T18:39:17.132Z,17.80
2018-02-19T18:41:45.421Z,18.23
2018-02-19T18:44:12.976Z,15.83
2018-02-19T18:46:40.543Z,17.80
2018-02-19T18:49:08.062Z,18.37
2018-02-19T18:51:35.712Z,19.57
2018-02-19T18:54:03.271Z,17.60
2018-02-19T18:56:31.018Z,18.00
2018-02-19T18:58:58.783Z,17.33
2018-02-19T19:01:26.778Z,17.90
2018-02-19T19:03:54.329Z,18.07
2018-02-19T19:06:23.926Z,19.90
2018-02-19T19:09:03.411Z,19.10
2018-02-19T19:11:31.687Z,18.47
2018-02-19T19:13:59.272Z,18.00
2018-02-19T19:16:27.712Z,17.63
2018-02-19T19:18:55.582Z,18.97
2018-02-19T19:21:24.075Z,20.30
2018-02-19T19:23:51.639Z,18.43
2018-02-19T19:26:19.257Z,19.10
2018-02-19T19:28:47.520Z,17.70
2018-02-19T19:31:15.205Z,19.80
2018-02-19T19:33:43.824Z,18.20
2018-02-19T19:36:12.041Z,19.83
2018-02-19T19:38:39.816Z,19.43
2018-02-19T19:41:07.431Z,17.20
2018-02-19T19:43:35.017Z,18.23
2018-02-19T19:46:02.704Z,18.50
2018-02-19T19:48:31.247Z,18.80
2018-02-19T19:50:59.008Z,18.27
2018-02-19T19:53:26.583Z,18.60
2018-02-19T19:55:54.172Z,18.57
2018-02-19T19:58:21.829Z,17.87
2018-02-19T20:00:49.414Z,17.13
2018-02-19T20:03:17.242Z,18.63
2018-02-19T20:05:44.915Z,18.80
2018-02-19T20:08:12.486Z,19.20
2018-02-19T20:10:40.939Z,19.57
2018-02-19T20:13:08.853Z,17.83
2018-02-19T20:15:36.448Z,18.83
2018-02-19T20:18:04.139Z,19.47
2018-02-19T20:20:31.819Z,18.47
2018-02-19T20:22:59.458Z,19.50
2018-02-19T20:25:27.108Z,17.63
2018-02-19T20:27:54.658Z,18.63
2018-02-19T20:30:22.273Z,19.17
2018-02-19T20:32:50.800Z,18.20
2018-02-19T20:35:18.399Z,18.97
2018-02-19T20:37:45.995Z,19.07
2018-02-19T20:40:13.577Z,19.07
2018-02-19T20:42:41.879Z,20.63
2018-02-19T20:45:09.562Z,20.13
2018-02-19T20:47:38.259Z,17.97
2018-02-19T20:50:06.758Z,17.67
2018-02-19T20:52:34.774Z,18.50
2018-02-19T20:55:03.756Z,18.37
2018-02-19T20:57:32.656Z,18.23
2018-02-19T21:00:00.348Z,18.60
2018-02-19T21:02:27.990Z,10.67
2018-02-19T21:04:55.717Z,14.40
2018-02-19T21:07:23.489Z,16.23
2018-02-19T21:09:51.356Z,18.87
2018-02-19T21:12:19.146Z,18.47
2018-02-19T21:14:47.211Z,18.20
2018-02-19T21:17:15.090Z,18.17
2018-02-19T21:19:43.750Z,17.30
2018-02-19T21:22:12.093Z,17.40
2018-02-19T21:24:39.745Z,17.93
2018-02-19T21:27:08.195Z,18.90
2018-02-19T21:29:35.921Z,17.70
2018-02-19T21:32:03.560Z,19.17
2018-02-19T21:34:32.995Z,18.47
2018-02-19T21:37:00.722Z,18.27
2018-02-19T21:39:29.225Z,18.50
2018-02-19T21:41:57.005Z,18.50
2018-02-19T21:44:25.395Z,18.43
2018-02-19T21:46:54.200Z,18.53
2018-02-19T21:49:21.897Z,18.60
2018-02-19T21:51:49.593Z,18.80
2018-02-19T21:54:17.208Z,18.13
2018-02-19T21:56:44.823Z,18.47
2018-02-19T21:59:12.484Z,19.50
2018-02-19T22:01:40.058Z,17.80
2018-02-19T22:04:08.568Z,17.73
2018-02-19T22:06:36.233Z,19.00
2018-02-19T22:09:03.832Z,20.30
2018-02-19T22:11:31.476Z,17.67
2018-02-19T22:13:59.089Z,19.57
2018-02-19T22:16:26.764Z,19.53
2018-02-19T22:18:54.324Z,19.27
2018-02-19T22:21:21.929Z,19.50
2018-02-19T22:23:49.855Z,19.07
2018-02-19T22:26:17.499Z,20.40
2018-02-19T22:28:45.839Z,18.93
2018-02-19T22:31:13.412Z,18.80
2018-02-19T22:33:41.250Z,18.37
2018-02-19T22:36:08.911Z,18.80
2018-02-19T22:38:37.278Z,19.90
2018-02-19T22:41:04.905Z,18.70
2018-02-19T22:43:32.470Z,19.30
2018-02-19T22:46:00.062Z,19.70
2018-02-19T22:48:27.643Z,20.10
2018-02-19T22:50:55.205Z,17.87
2018-02-19T22:53:22.967Z,20.10
2018-02-19T22:55:50.559Z,20.97
2018-02-19T22:58:18.046Z,19.50
2018-02-19T23:00:45.573Z,21.03
2018-02-19T23:03:13.192Z,19.90
2018-02-19T23:05:40.821Z,20.10
2018-02-19T23:08:08.363Z,21.67
2018-02-19T23:10:36.641Z,20.97
2018-02-19T23:13:05.280Z,20.83
2018-02-19T23:15:32.940Z,21.07
2018-02-19T23:18:01.291Z,21.97
2018-02-19T23:20:28.917Z,21.90
2018-02-19T23:22:56.434Z,20.77
2018-02-19T23:25:24.066Z,20.30
2018-02-19T23:27:51.635Z,21.47
2018-02-19T23:30:19.177Z,22.33
2018-02-19T23:32:46.746Z,22.53
2018-02-19T23:35:15.039Z,21.60
2018-02-19T23:37:43.362Z,19.50
2018-02-19T23:40:10.925Z,20.77
2018-02-19T23:42:38.486Z,20.93
2018-02-19T23:45:06.857Z,21.73
2018-02-19T23:47:34.528Z,22.60
2018-02-19T23:50:02.062Z,21.63
2018-02-19T23:52:29.628Z,22.03
2018-02-19T23:54:57.144Z,21.87
2018-02-19T23:57:25.436Z,21.90
2018-02-19T23:59:53.778Z,23.07
